Time;durP1;ratioP1;P1;durP2;ratioP2;P2;SDS_P1;SDS_P2;PMS_P1;PMS_P2;Temp;Humidity;BMP_temperature;BMP_pressure;BME280_temperature;BME280_humidity;BME280_pressure;Samples;Min_cycle;Max_cycle;Signal;HPM_P1;HPM_P2
2021/06/12 00:02:18;;;;;;;2.65;2.45;;;;;;;16.00;91.58;101619.09;5008618;28;20038;-77
2021/06/12 00:04:44;;;;;;;5.72;2.17;;;;;;;16.04;91.66;101609.03;4975339;28;20474;-76
2021/06/12 00:07:09;;;;;;;4.13;2.17;;;;;;;16.06;91.33;101593.81;5026118;28;20037;-76
2021/06/12 00:09:35;;;;;;;4.60;2.60;;;;;;;16.13;90.41;101597.47;5007459;28;20825;-76
2021/06/12 00:12:01;;;;;;;3.25;2.35;;;;;;;16.03;90.57;101597.63;5000865;28;20115;-77
2021/06/12 00:14:27;;;;;;;5.25;2.53;;;;;;;16.04;90.58;101598.44;5006740;28;20034;-75
2021/06/12 00:16:52;;;;;;;3.80;2.53;;;;;;;15.94;90.85;101594.13;4985309;28;20030;-76
2021/06/12 00:19:18;;;;;;;4.55;2.05;;;;;;;15.88;90.59;101592.13;4997915;28;20083;-77
2021/06/12 00:21:44;;;;;;;5.13;2.47;;;;;;;15.89;90.66;101591.13;5016317;28;20057;-76
2021/06/12 00:24:10;;;;;;;3.75;2.47;;;;;;;15.77;91.20;101592.41;4998785;28;20036;-77
2021/06/12 00:26:37;;;;;;;3.97;2.60;;;;;;;15.70;91.34;101597.47;5007940;28;20042;-77
2021/06/12 00:29:04;;;;;;;5.38;2.63;;;;;;;15.63;91.56;101585.88;4998348;28;20029;-77
2021/06/12 00:31:29;;;;;;;2.30;2.10;;;;;;;15.53;91.92;101586.00;4994191;28;20029;-76
2021/06/12 00:33:55;;;;;;;7.82;2.55;;;;;;;15.52;91.77;101584.34;4995291;28;20516;-75
2021/06/12 00:36:21;;;;;;;3.33;2.22;;;;;;;15.52;91.88;101591.44;4991212;28;20025;-75
2021/06/12 00:38:47;;;;;;;2.75;2.50;;;;;;;15.50;92.17;101591.63;5007756;28;20037;-77
2021/06/12 00:41:13;;;;;;;2.67;2.47;;;;;;;15.44;92.27;101579.00;4988897;28;20075;-76
2021/06/12 00:43:41;;;;;;;3.60;2.35;;;;;;;15.46;92.40;101582.31;4994650;28;20502;-76
2021/06/12 00:46:07;;;;;;;3.83;2.40;;;;;;;15.46;92.62;101587.59;4994554;28;20041;-77
2021/06/12 00:48:33;;;;;;;2.72;2.35;;;;;;;15.47;92.96;101585.81;4986665;28;20293;-78
2021/06/12 00:50:58;;;;;;;4.80;2.80;;;;;;;15.43;92.72;101590.59;5016423;28;20490;-76
2021/06/12 00:53:37;;;;;;;4.57;2.50;;;;;;;15.45;93.02;101583.31;4998272;28;20053;-75
2021/06/12 00:56:05;;;;;;;3.58;2.65;;;;;;;15.47;93.08;101589.28;4997200;28;20034;-76
2021/06/12 00:58:35;;;;;;;3.00;2.70;;;;;;;15.51;93.47;101587.16;4982252;28;20782;-77
2021/06/12 01:01:01;;;;;;;3.53;2.63;;;;;;;15.53;93.34;101588.63;4997974;28;20441;-76
2021/06/12 01:03:28;;;;;;;4.22;2.40;;;;;;;15.60;93.09;101582.75;5007442;28;20033;-77
2021/06/12 01:05:55;;;;;;;3.33;2.63;;;;;;;15.57;93.13;101571.47;4992734;28;20148;-77
2021/06/12 01:08:22;;;;;;;2.85;2.60;;;;;;;15.71;92.63;101583.28;4979712;28;20477;-76
2021/06/12 01:10:47;;;;;;;3.30;2.30;;;;;;;15.77;92.45;101584.47;4964904;28;20037;-76
2021/06/12 01:13:28;;;;;;;5.80;2.78;;;;;;;15.76;92.58;101575.72;4990482;28;20045;-75
2021/06/12 01:16:14;;;;;;;2.60;2.40;;;;;;;15.81;91.94;101564.66;4994454;28;20036;-76
2021/06/12 01:18:44;;;;;;;3.13;2.72;;;;;;;15.86;92.06;101566.78;4974409;28;20105;-76
2021/06/12 01:21:34;;;;;;;5.28;2.85;;;;;;;15.91;91.86;101567.97;4963678;28;20468;-76
2021/06/12 01:24:23;;;;;;;2.47;2.28;;;;;;;15.95;91.96;101557.91;4994378;28;20125;-75
2021/06/12 01:27:11;;;;;;;3.53;2.65;;;;;;;15.99;91.55;101555.75;4968988;28;20043;-76
2021/06/12 01:30:04;;;;;;;7.32;3.00;;;;;;;16.02;91.81;101553.63;4971027;28;20034;-76
2021/06/12 01:32:37;;;;;;;3.70;2.75;;;;;;;16.02;91.53;101555.44;5004030;28;20046;-77
2021/06/12 01:35:10;;;;;;;3.90;2.88;;;;;;;16.06;91.29;101551.47;5011475;28;20057;-76
2021/06/12 01:37:39;;;;;;;3.85;2.80;;;;;;;16.08;91.59;101545.03;4970495;28;20116;-77
2021/06/12 01:40:07;;;;;;;4.80;3.13;;;;;;;16.07;90.93;101550.50;4976821;28;20104;-77
2021/06/12 01:42:36;;;;;;;4.15;2.45;;;;;;;16.06;91.15;101548.81;4993374;28;20041;-76
2021/06/12 01:45:02;;;;;;;4.32;2.95;;;;;;;16.09;90.88;101548.50;4956293;28;20092;-77
2021/06/12 01:47:31;;;;;;;3.42;2.55;;;;;;;16.13;91.80;101549.84;4972726;28;20045;-77
2021/06/12 01:49:58;;;;;;;7.18;2.58;;;;;;;16.20;91.87;101547.34;4971851;28;20041;-77
2021/06/12 01:52:25;;;;;;;3.10;2.75;;;;;;;16.12;91.69;101546.38;5002820;28;20033;-77
2021/06/12 01:54:51;;;;;;;2.95;2.63;;;;;;;16.22;91.58;101546.22;4978827;28;20040;-77
2021/06/12 01:57:17;;;;;;;2.72;2.60;;;;;;;16.20;92.07;101550.00;5008388;28;20073;-75
2021/06/12 01:59:43;;;;;;;5.38;3.30;;;;;;;16.16;92.10;101544.19;4986850;28;20027;-74
2021/06/12 02:02:09;;;;;;;4.10;2.65;;;;;;;16.14;92.07;101546.19;4968690;28;20574;-77
2021/06/12 02:04:38;;;;;;;4.18;3.22;;;;;;;16.14;91.88;101538.25;4987468;28;20125;-76
2021/06/12 02:07:06;;;;;;;6.07;3.30;;;;;;;16.21;92.08;101533.13;4986295;28;20063;-76
2021/06/12 02:09:32;;;;;;;5.38;3.22;;;;;;;16.18;91.81;101526.38;4995649;28;20033;-75
2021/06/12 02:11:58;;;;;;;5.00;3.38;;;;;;;16.04;91.84;101516.41;4993168;28;20089;-73
2021/06/12 02:14:25;;;;;;;4.85;3.20;;;;;;;16.13;92.17;101524.19;4992241;28;20033;-76
2021/06/12 02:16:52;;;;;;;4.30;3.10;;;;;;;16.08;92.29;101512.44;4995334;28;20034;-75
2021/06/12 02:19:19;;;;;;;7.65;3.75;;;;;;;16.13;92.49;101518.91;5001043;28;20097;-77
2021/06/12 02:21:46;;;;;;;4.65;3.40;;;;;;;16.05;92.72;101518.06;5008832;28;20038;-77
2021/06/12 02:24:13;;;;;;;6.43;3.35;;;;;;;16.05;92.76;101521.53;4995391;28;20040;-76
2021/06/12 02:26:42;;;;;;;5.97;3.58;;;;;;;16.09;93.48;101519.41;5007503;28;20126;-77
2021/06/12 02:29:09;;;;;;;6.20;3.78;;;;;;;16.04;93.66;101521.69;4968131;28;20033;-74
2021/06/12 02:31:46;;;;;;;6.45;3.80;;;;;;;15.99;93.74;101514.25;4990249;28;20043;-75
2021/06/12 02:34:11;;;;;;;7.93;4.57;;;;;;;15.98;93.78;101519.72;5003555;28;20493;-76
2021/06/12 02:36:37;;;;;;;9.80;5.30;;;;;;;16.04;94.07;101524.34;4995012;28;20033;-76
2021/06/12 02:39:04;;;;;;;8.02;5.70;;;;;;;16.00;94.13;101534.44;5027211;28;20049;-77
2021/06/12 02:41:30;;;;;;;8.50;5.60;;;;;;;16.01;94.00;101529.97;4970981;28;20038;-76
2021/06/12 02:43:56;;;;;;;8.20;6.28;;;;;;;16.01;94.50;101527.31;4992169;28;20030;-76
2021/06/12 02:46:26;;;;;;;12.35;6.65;;;;;;;16.06;94.36;101530.31;4983342;28;20038;-77
2021/06/12 02:48:57;;;;;;;9.05;5.97;;;;;;;16.08;94.42;101521.19;5018389;28;20037;-77
2021/06/12 02:51:24;;;;;;;9.60;6.75;;;;;;;16.08;94.35;101523.84;4974430;28;20060;-77
2021/06/12 02:53:52;;;;;;;13.13;7.78;;;;;;;16.16;94.29;101517.72;4973192;28;20124;-76
2021/06/12 02:56:19;;;;;;;12.05;8.82;;;;;;;16.19;93.69;101521.88;4990510;28;20042;-77
2021/06/12 02:58:46;;;;;;;14.02;8.68;;;;;;;16.18;93.69;101505.19;4999192;28;20112;-77
2021/06/12 03:01:15;;;;;;;12.82;8.05;;;;;;;16.20;94.34;101521.72;4981022;28;20065;-76
2021/06/12 03:03:42;;;;;;;11.52;7.45;;;;;;;16.21;94.14;101517.25;4988226;28;20036;-77
2021/06/12 03:06:08;;;;;;;12.30;7.30;;;;;;;16.21;94.25;101510.13;4979455;28;20084;-77
2021/06/12 03:08:46;;;;;;;11.73;8.02;;;;;;;16.30;94.68;101511.78;4991823;28;20042;-77
2021/06/12 03:11:14;;;;;;;12.90;8.43;;;;;;;16.33;94.89;101502.69;4976478;28;20053;-77
2021/06/12 03:13:43;;;;;;;15.75;9.48;;;;;;;16.33;95.26;101503.53;4989842;28;20599;-77
2021/06/12 03:16:09;;;;;;;16.13;11.20;;;;;;;16.30;95.75;101511.78;4982704;28;20639;-77
2021/06/12 03:18:36;;;;;;;17.98;12.20;;;;;;;16.24;95.97;101498.41;4974031;28;20147;-77
2021/06/12 03:21:04;;;;;;;14.82;10.50;;;;;;;16.23;96.73;101494.91;5001914;28;20135;-76
2021/06/12 03:23:31;;;;;;;15.65;10.57;;;;;;;16.21;97.39;101485.50;5016384;28;20111;-77
2021/06/12 03:25:59;;;;;;;16.60;11.15;;;;;;;16.19;97.71;101493.59;4995712;28;20434;-76
2021/06/12 03:28:25;;;;;;;16.80;10.88;;;;;;;16.22;97.87;101490.63;4968195;28;20041;-76
2021/06/12 03:30:51;;;;;;;20.55;12.10;;;;;;;16.17;98.04;101490.28;4976489;28;20034;-75
2021/06/12 03:33:18;;;;;;;20.63;12.98;;;;;;;16.23;98.03;101494.91;5007169;28;20037;-76
2021/06/12 03:35:45;;;;;;;20.05;13.45;;;;;;;16.26;97.95;101491.13;4999935;28;20406;-77
2021/06/12 03:38:12;;;;;;;20.27;13.80;;;;;;;16.30;98.23;101495.09;5026437;28;20038;-76
2021/06/12 03:40:38;;;;;;;21.63;14.02;;;;;;;16.30;97.88;101487.16;4996887;28;20033;-76
2021/06/12 03:43:04;;;;;;;19.83;13.60;;;;;;;16.28;97.91;101486.50;4989051;28;20080;-77
2021/06/12 03:45:31;;;;;;;23.10;14.75;;;;;;;16.27;98.05;101484.81;4969370;28;20038;-77
2021/06/12 03:48:02;;;;;;;19.98;13.70;;;;;;;16.30;98.32;101493.25;4991789;28;20058;-77
2021/06/12 03:50:28;;;;;;;21.60;14.43;;;;;;;16.22;98.37;101485.34;4975440;28;20178;-77
2021/06/12 03:52:54;;;;;;;20.20;13.20;;;;;;;16.27;98.60;101501.53;4974520;28;20042;-77
2021/06/12 03:55:21;;;;;;;23.65;16.30;;;;;;;16.39;98.54;101501.19;5029229;28;20053;-76
2021/06/12 03:57:48;;;;;;;22.48;15.55;;;;;;;16.38;97.82;101505.66;5008940;28;20430;-76
2021/06/12 04:00:16;;;;;;;21.88;15.07;;;;;;;16.35;98.05;101512.13;4972067;28;20042;-74
2021/06/12 04:02:41;;;;;;;24.35;15.30;;;;;;;16.35;97.78;101496.25;5000844;28;20577;-77
2021/06/12 04:05:08;;;;;;;18.23;13.68;;;;;;;16.30;97.68;101500.38;4983917;28;20076;-76
2021/06/12 04:07:36;;;;;;;19.83;13.95;;;;;;;16.27;97.99;101508.66;4977097;28;20038;-76
2021/06/12 04:10:04;;;;;;;18.65;12.93;;;;;;;16.17;98.31;101494.75;4995291;28;20874;-76
2021/06/12 04:12:29;;;;;;;17.40;11.85;;;;;;;16.16;98.96;101485.97;4992507;28;20044;-75
2021/06/12 04:14:55;;;;;;;19.75;12.60;;;;;;;16.14;98.66;101499.41;4982738;28;20037;-75
2021/06/12 04:17:21;;;;;;;14.30;10.88;;;;;;;16.16;98.21;101501.84;4986818;28;20038;-75
2021/06/12 04:19:46;;;;;;;14.10;10.65;;;;;;;16.13;98.39;101516.25;4985927;28;20033;-74
2021/06/12 04:22:11;;;;;;;17.73;11.55;;;;;;;16.20;98.80;101491.75;4981951;28;20084;-75
2021/06/12 04:24:37;;;;;;;17.23;12.13;;;;;;;16.21;98.56;101502.19;4990201;28;20060;-74
2021/06/12 04:27:03;;;;;;;15.40;10.50;;;;;;;16.18;98.72;101494.59;4978200;28;20037;-75
2021/06/12 04:29:29;;;;;;;17.50;11.35;;;;;;;16.15;98.88;101489.63;4980892;28;20046;-76
2021/06/12 04:31:54;;;;;;;18.15;10.90;;;;;;;16.13;99.06;101489.78;4963985;28;20030;-75
2021/06/12 04:34:20;;;;;;;18.60;11.32;;;;;;;16.12;99.26;101496.09;4978637;28;20041;-74
2021/06/12 04:36:45;;;;;;;16.05;12.05;;;;;;;16.11;99.64;101480.38;4978225;28;20038;-73
2021/06/12 04:39:11;;;;;;;16.75;11.93;;;;;;;16.17;99.96;101487.63;4975604;28;20119;-73
2021/06/12 04:41:37;;;;;;;16.95;11.65;;;;;;;16.10;99.86;101478.69;5001445;28;20486;-75
2021/06/12 04:44:04;;;;;;;23.13;15.07;;;;;;;16.22;100.00;101493.28;4989244;28;20526;-75
2021/06/12 04:46:30;;;;;;;20.90;13.23;;;;;;;16.19;99.88;101490.13;5008524;28;20123;-75
2021/06/12 04:48:55;;;;;;;19.25;13.45;;;;;;;16.22;100.00;101503.00;5004930;28;20060;-75
2021/06/12 04:51:21;;;;;;;18.85;13.68;;;;;;;16.38;99.95;101502.19;4985785;28;20565;-74
2021/06/12 04:53:47;;;;;;;20.38;13.40;;;;;;;16.39;98.07;101485.31;4971931;28;20034;-74
2021/06/12 04:56:12;;;;;;;20.13;12.95;;;;;;;16.42;98.26;101483.16;4986841;28;20064;-75
2021/06/12 04:58:38;;;;;;;16.23;11.73;;;;;;;16.46;98.83;101489.78;4986566;28;20037;-77
2021/06/12 05:01:03;;;;;;;18.77;13.05;;;;;;;16.46;98.57;101494.25;4984550;28;20049;-75
2021/06/12 05:03:29;;;;;;;14.00;10.73;;;;;;;16.50;97.59;101492.91;5025413;28;20029;-74
2021/06/12 05:05:55;;;;;;;18.13;11.80;;;;;;;16.52;98.19;101496.25;5025563;28;20038;-75
2021/06/12 05:08:20;;;;;;;13.52;10.15;;;;;;;16.49;98.28;101499.22;4992021;28;20830;-75
2021/06/12 05:10:46;;;;;;;17.02;11.35;;;;;;;16.49;98.35;101501.88;5006423;28;20494;-72
2021/06/12 05:13:11;;;;;;;15.07;9.20;;;;;;;16.50;98.59;101501.69;5008457;28;20041;-75
2021/06/12 05:15:37;;;;;;;15.95;11.68;;;;;;;16.48;97.01;101506.34;4967312;28;20052;-74
2021/06/12 05:18:05;;;;;;;15.43;11.25;;;;;;;16.51;96.43;101508.63;5005482;28;20046;-75
2021/06/12 05:20:35;;;;;;;15.38;11.38;;;;;;;16.55;95.45;101503.84;4977485;28;20029;-75
2021/06/12 05:23:05;;;;;;;17.27;11.38;;;;;;;16.56;96.22;101508.16;4979668;28;20034;-75
2021/06/12 05:25:32;;;;;;;16.17;10.82;;;;;;;16.59;96.99;101507.81;4989918;28;20029;-75
2021/06/12 05:27:58;;;;;;;12.25;9.93;;;;;;;16.66;97.26;101511.44;4988033;28;20033;-76
2021/06/12 05:30:24;;;;;;;15.10;11.38;;;;;;;16.69;95.91;101516.41;4976867;28;20158;-75
2021/06/12 05:32:50;;;;;;;14.05;10.23;;;;;;;16.76;95.66;101503.31;5009259;28;20418;-74
2021/06/12 05:35:16;;;;;;;19.95;11.50;;;;;;;16.77;95.34;101490.91;4962486;28;20034;-75
2021/06/12 05:37:42;;;;;;;14.88;10.88;;;;;;;16.80;93.65;101502.00;4989602;28;20030;-76
2021/06/12 05:40:10;;;;;;;14.40;10.32;;;;;;;16.82;95.32;101494.72;4991967;28;20128;-76
2021/06/12 05:42:36;;;;;;;17.02;9.98;;;;;;;16.87;95.15;101500.31;4982533;28;20107;-76
2021/06/12 05:45:03;;;;;;;17.48;11.07;;;;;;;16.94;95.03;101487.25;4990763;28;20041;-74
2021/06/12 05:47:29;;;;;;;15.65;11.18;;;;;;;16.92;95.57;101479.47;5017875;28;20034;-76
2021/06/12 05:49:54;;;;;;;16.92;11.60;;;;;;;17.02;95.28;101479.25;4958877;28;20062;-76
2021/06/12 05:52:20;;;;;;;19.42;13.80;;;;;;;17.12;95.18;101479.03;4975572;23;20085;-78
2021/06/12 05:54:45;;;;;;;21.67;14.23;;;;;;;17.18;95.08;101477.53;4995954;28;20658;-77
2021/06/12 05:57:11;;;;;;;22.38;15.63;;;;;;;17.22;94.13;101478.88;5007953;28;20460;-77
2021/06/12 05:59:38;;;;;;;25.50;17.20;;;;;;;17.19;94.09;101479.19;4976881;28;20121;-77
2021/06/12 06:02:03;;;;;;;26.80;16.98;;;;;;;17.20;94.29;101486.16;4981960;28;20034;-77
2021/06/12 06:04:29;;;;;;;28.38;17.77;;;;;;;17.19;94.44;101477.38;4963189;28;20089;-77
2021/06/12 06:06:54;;;;;;;27.58;18.95;;;;;;;17.19;94.66;101481.84;4969882;28;20092;-74
2021/06/12 06:09:20;;;;;;;26.05;17.80;;;;;;;17.19;94.95;101490.63;4989526;28;20053;-76
2021/06/12 06:11:45;;;;;;;26.67;18.60;;;;;;;17.23;95.08;101478.66;4957886;28;20039;-78
2021/06/12 06:14:11;;;;;;;28.92;20.23;;;;;;;17.26;94.35;101482.81;4989527;28;20046;-80
2021/06/12 06:16:37;;;;;;;27.13;18.85;;;;;;;17.22;95.35;101486.81;4990867;28;20109;-80
2021/06/12 06:19:02;;;;;;;29.90;19.20;;;;;;;17.20;95.22;101470.25;4991851;28;20034;-77
2021/06/12 06:21:28;;;;;;;29.90;20.05;;;;;;;17.29;94.55;101479.81;4993469;28;20041;-76
2021/06/12 06:23:54;;;;;;;33.15;21.60;;;;;;;17.28;93.92;101472.88;4985213;28;20126;-77
2021/06/12 06:26:20;;;;;;;36.10;22.33;;;;;;;17.30;92.89;101469.03;4951380;28;20403;-76
2021/06/12 06:28:46;;;;;;;28.25;19.38;;;;;;;17.37;94.37;101466.53;4991453;28;20387;-77
2021/06/12 06:31:11;;;;;;;27.33;19.42;;;;;;;17.46;94.24;101465.50;4980244;28;20133;-76
2021/06/12 06:33:37;;;;;;;27.98;19.35;;;;;;;17.63;92.93;101460.91;4957713;28;20109;-77
2021/06/12 06:36:03;;;;;;;27.50;18.45;;;;;;;17.70;93.64;101453.88;4977292;28;20395;-76
2021/06/12 06:38:28;;;;;;;30.13;19.63;;;;;;;17.89;91.82;101442.03;4965415;28;20029;-78
2021/06/12 06:40:54;;;;;;;30.02;20.38;;;;;;;17.89;90.39;101436.72;4973623;28;20525;-76
2021/06/12 06:43:20;;;;;;;27.05;19.85;;;;;;;17.93;90.76;101437.16;4986002;28;20044;-77
2021/06/12 06:45:48;;;;;;;27.10;19.73;;;;;;;17.94;89.20;101454.75;4975041;28;20376;-76
2021/06/12 06:48:15;;;;;;;29.15;20.20;;;;;;;18.00;90.14;101464.66;4974028;28;20057;-76
2021/06/12 06:50:41;;;;;;;29.65;19.58;;;;;;;18.07;90.22;101456.81;4977447;28;20038;-77
2021/06/12 06:53:07;;;;;;;30.45;20.02;;;;;;;18.07;89.54;101447.00;4964383;28;20100;-76
2021/06/12 06:55:33;;;;;;;27.65;19.92;;;;;;;18.15;88.78;101450.59;4969457;28;20112;-76
2021/06/12 06:57:58;;;;;;;25.80;18.90;;;;;;;18.09;89.16;101452.16;4982191;28;20121;-77
2021/06/12 07:00:26;;;;;;;28.00;19.95;;;;;;;17.98;88.96;101444.59;4977388;28;20066;-77
2021/06/12 07:02:53;;;;;;;30.25;19.75;;;;;;;17.95;88.93;101443.16;4988745;28;20548;-77
2021/06/12 07:05:19;;;;;;;31.25;20.80;;;;;;;17.84;87.85;101446.19;4992003;28;20065;-77
2021/06/12 07:07:44;;;;;;;26.98;19.80;;;;;;;17.87;88.74;101443.19;4958032;28;20492;-76
2021/06/12 07:10:10;;;;;;;28.30;19.88;;;;;;;17.78;89.91;101421.19;4970123;28;20491;-76
2021/06/12 07:12:36;;;;;;;33.08;22.05;;;;;;;17.86;89.87;101437.06;4973714;28;20042;-77
2021/06/12 07:15:04;;;;;;;31.63;21.50;;;;;;;17.84;90.18;101441.72;4980524;28;20046;-77
2021/06/12 07:17:29;;;;;;;31.17;22.27;;;;;;;17.82;90.42;101433.09;4974526;28;20034;-79
2021/06/12 07:20:04;;;;;;;28.25;21.63;;;;;;;17.85;90.42;101437.22;4996542;28;20050;-78
2021/06/12 07:22:30;;;;;;;34.75;20.83;;;;;;;17.85;91.29;101437.22;4964740;28;20066;-75
2021/06/12 07:24:55;;;;;;;32.33;23.23;;;;;;;17.81;88.64;101433.25;4955957;28;20056;-77
2021/06/12 07:27:21;;;;;;;30.52;21.40;;;;;;;17.86;91.00;101436.25;4978123;28;20114;-78
2021/06/12 07:29:46;;;;;;;32.45;22.70;;;;;;;17.85;90.57;101424.78;4962585;28;20048;-77
2021/06/12 07:32:12;;;;;;;31.42;22.02;;;;;;;17.86;91.76;101426.44;4980433;28;20596;-76
2021/06/12 07:34:38;;;;;;;30.27;21.45;;;;;;;17.77;91.63;101422.19;4959670;28;20132;-80
2021/06/12 07:37:04;;;;;;;29.92;22.60;;;;;;;17.77;91.74;101424.81;4965381;28;20476;-77
2021/06/12 07:39:30;;;;;;;32.65;21.77;;;;;;;17.68;93.56;101429.34;4993528;28;20034;-77
2021/06/12 07:41:55;;;;;;;32.42;22.25;;;;;;;17.63;94.01;101433.53;5009173;28;20045;-76
2021/06/12 07:44:21;;;;;;;33.42;23.38;;;;;;;17.57;93.73;101419.16;4973062;28;20038;-74
2021/06/12 07:46:47;;;;;;;31.25;23.30;;;;;;;17.41;93.29;101429.88;4973912;28;20042;-77
2021/06/12 07:49:13;;;;;;;33.75;23.90;;;;;;;17.28;94.45;101451.66;4972954;28;20117;-80
2021/06/12 07:51:39;;;;;;;36.45;25.95;;;;;;;17.20;95.29;101430.50;4972794;28;20038;-77
2021/06/12 07:54:05;;;;;;;32.88;21.17;;;;;;;17.03;95.53;101438.53;4973680;28;20049;-77
2021/06/12 07:56:31;;;;;;;23.73;17.50;;;;;;;16.88;96.35;101441.06;4973221;28;20038;-77
2021/06/12 07:58:58;;;;;;;19.35;13.70;;;;;;;16.80;95.56;101442.88;4973383;28;20046;-77
2021/06/12 08:01:24;;;;;;;22.15;13.65;;;;;;;16.80;96.12;101442.88;4988389;28;20042;-78
2021/06/12 08:03:50;;;;;;;19.73;13.23;;;;;;;16.81;95.90;101437.41;4973142;28;20991;-78
2021/06/12 08:06:16;;;;;;;20.17;13.60;;;;;;;16.88;96.58;101434.94;4989761;28;20033;-78
2021/06/12 08:08:42;;;;;;;23.80;15.25;;;;;;;16.92;97.19;101445.00;4989872;28;20034;-78
2021/06/12 08:11:07;;;;;;;21.33;13.93;;;;;;;16.95;97.59;101446.47;4972442;28;20092;-76
2021/06/12 08:13:33;;;;;;;23.00;15.57;;;;;;;16.91;96.96;101443.38;4957617;28;20046;-77
2021/06/12 08:15:59;;;;;;;22.75;17.10;;;;;;;16.79;97.35;101449.16;4988769;28;20034;-78
2021/06/12 08:18:24;;;;;;;23.13;16.65;;;;;;;16.80;97.53;101456.09;4965260;28;20514;-77
2021/06/12 08:20:50;;;;;;;26.92;17.95;;;;;;;16.76;96.93;101452.16;4974893;28;20108;-78
2021/06/12 08:23:16;;;;;;;28.30;18.50;;;;;;;16.81;98.63;101458.59;4958396;28;20038;-77
2021/06/12 08:25:42;;;;;;;26.48;18.73;;;;;;;16.78;96.37;101448.31;4956610;28;20042;-77
2021/06/12 08:28:08;;;;;;;28.85;18.00;;;;;;;16.76;97.70;101468.03;4989000;28;20962;-81
2021/06/12 08:30:34;;;;;;;26.50;18.92;;;;;;;16.83;97.92;101466.41;4956669;28;20407;-77
2021/06/12 08:33:01;;;;;;;29.75;18.35;;;;;;;16.86;97.73;101464.25;4997550;28;20085;-79
2021/06/12 08:35:27;;;;;;;25.38;16.48;;;;;;;16.85;96.40;101462.59;4984842;28;20023;-77
2021/06/12 08:37:53;;;;;;;21.38;15.48;;;;;;;17.00;95.38;101475.94;4970578;28;20061;-76
2021/06/12 08:40:18;;;;;;;21.70;14.55;;;;;;;16.96;94.71;101479.94;4965797;28;20137;-78
2021/06/12 08:42:48;;;;;;;20.67;13.45;;;;;;;17.04;93.72;101482.56;4973142;28;20054;-77
2021/06/12 08:45:14;;;;;;;16.83;12.45;;;;;;;16.98;91.13;101488.56;4941907;28;20049;-77
2021/06/12 08:47:40;;;;;;;17.83;12.63;;;;;;;17.00;91.56;101491.84;4955151;28;20045;-78
2021/06/12 08:50:07;;;;;;;19.17;13.00;;;;;;;17.11;91.08;101488.84;4971097;28;20034;-75
2021/06/12 08:52:32;;;;;;;18.70;12.57;;;;;;;17.15;90.96;101491.16;4990350;28;20046;-78
2021/06/12 08:54:58;;;;;;;16.20;10.25;;;;;;;17.35;87.52;101496.84;4999720;28;20039;-79
2021/06/12 08:57:24;;;;;;;16.30;10.60;;;;;;;17.49;88.45;101494.28;4981423;28;20034;-77
2021/06/12 08:59:49;;;;;;;15.85;9.27;;;;;;;17.65;87.21;101487.25;4952087;28;20742;-76
2021/06/12 09:02:15;;;;;;;16.05;7.18;;;;;;;17.75;83.19;101479.91;4962538;28;20566;-77
2021/06/12 09:04:44;;;;;;;19.15;7.50;;;;;;;17.76;87.17;101486.03;4971419;28;20053;-77
2021/06/12 09:07:29;;;;;;;12.95;5.93;;;;;;;17.77;81.53;101487.69;4971701;28;20027;-76
2021/06/12 09:09:57;;;;;;;10.05;6.15;;;;;;;17.76;84.74;101492.16;4970966;28;20443;-76
2021/06/12 09:12:45;;;;;;;12.52;5.80;;;;;;;17.85;85.91;101499.09;4972200;28;20034;-77
2021/06/12 09:15:16;;;;;;;14.07;5.50;;;;;;;18.08;84.62;101500.91;4988876;28;20355;-78
2021/06/12 09:17:45;;;;;;;12.82;5.20;;;;;;;18.05;82.49;101507.41;4959817;28;20034;-78
2021/06/12 09:20:17;;;;;;;12.20;4.80;;;;;;;17.92;79.15;101503.72;4994274;28;20038;-77
2021/06/12 09:22:43;;;;;;;8.23;4.00;;;;;;;17.95;80.98;101508.66;4954026;28;20462;-76
2021/06/12 09:25:09;;;;;;;8.20;3.70;;;;;;;17.99;78.89;101521.41;4992135;28;20133;-76
2021/06/12 09:27:35;;;;;;;7.85;3.47;;;;;;;17.99;82.12;101524.06;4973325;28;20042;-76
2021/06/12 09:30:07;;;;;;;8.32;4.20;;;;;;;17.90;79.03;101523.28;4990632;28;20109;-78
2021/06/12 09:32:44;;;;;;;7.25;3.05;;;;;;;18.00;76.42;101515.09;4972784;28;20049;-76
2021/06/12 09:35:10;;;;;;;9.60;3.50;;;;;;;18.13;82.44;101511.84;4968970;28;20063;-77
2021/06/12 09:37:37;;;;;;;10.45;3.95;;;;;;;18.43;82.18;101517.25;4967376;28;20610;-75
2021/06/12 09:40:06;;;;;;;10.73;3.50;;;;;;;18.44;73.55;101514.41;4972101;28;20049;-76
2021/06/12 09:42:39;;;;;;;6.90;3.67;;;;;;;18.36;75.11;101516.31;4954706;28;20161;-74
2021/06/12 09:45:07;;;;;;;9.55;3.30;;;;;;;18.62;76.84;101516.72;4974403;28;20111;-77
2021/06/12 09:47:33;;;;;;;9.77;3.38;;;;;;;19.01;73.29;101517.53;5004765;28;20026;-77
2021/06/12 09:50:00;;;;;;;16.98;3.53;;;;;;;19.10;68.97;101505.81;4983672;28;20027;-75
2021/06/12 09:52:25;;;;;;;13.43;3.85;;;;;;;19.35;71.13;101503.66;4957846;28;20395;-78
2021/06/12 09:54:52;;;;;;;9.82;3.40;;;;;;;19.64;75.24;101513.41;4992133;28;20041;-75
2021/06/12 09:57:20;;;;;;;10.32;2.65;;;;;;;19.38;69.27;101518.41;4980528;28;20038;-76
2021/06/12 09:59:56;;;;;;;8.70;3.08;;;;;;;19.03;69.18;101520.84;4954444;28;20038;-78
2021/06/12 10:02:39;;;;;;;8.63;3.25;;;;;;;19.11;66.73;101512.75;4965843;28;20037;-77
2021/06/12 10:05:07;;;;;;;8.25;2.38;;;;;;;18.96;66.18;101519.91;4978642;28;20069;-76
2021/06/12 10:07:33;;;;;;;13.07;2.60;;;;;;;18.96;75.03;101520.72;4961667;28;20047;-77
2021/06/12 10:10:13;;;;;;;8.15;2.67;;;;;;;18.99;74.81;101533.66;4953759;28;20085;-74
2021/06/12 10:12:40;;;;;;;9.38;2.38;;;;;;;18.85;67.81;101530.00;4969765;28;20043;-78
2021/06/12 10:15:10;;;;;;;10.93;2.50;;;;;;;18.60;65.19;101555.94;4977761;28;20072;-76
2021/06/12 10:17:48;;;;;;;7.60;2.25;;;;;;;18.38;68.81;101549.63;4972577;28;20079;-79
2021/06/12 10:20:17;;;;;;;11.82;2.40;;;;;;;18.18;66.04;101533.38;4979871;28;20387;-76
2021/06/12 10:22:47;;;;;;;8.48;2.53;;;;;;;17.88;73.02;101525.28;4958634;28;20041;-76
2021/06/12 10:25:14;;;;;;;19.48;3.38;;;;;;;17.76;71.22;101553.19;4990570;28;20034;-76
2021/06/12 10:27:41;;;;;;;9.52;2.00;;;;;;;17.79;67.73;101539.56;4989867;28;20026;-76
2021/06/12 10:30:09;;;;;;;8.18;2.10;;;;;;;18.01;73.80;101556.56;4967533;28;20109;-77
2021/06/12 10:32:36;;;;;;;4.93;1.85;;;;;;;18.36;68.29;101556.97;4977998;28;20768;-78
2021/06/12 10:35:03;;;;;;;7.32;2.22;;;;;;;18.43;66.14;101560.56;4993941;28;20039;-77
2021/06/12 10:37:59;;;;;;;8.15;2.17;;;;;;;18.18;64.32;101559.13;4996764;28;20045;-78
2021/06/12 10:40:44;;;;;;;7.65;1.90;;;;;;;18.15;68.59;101562.13;4977578;28;20034;-77
2021/06/12 10:43:25;;;;;;;9.27;2.53;;;;;;;18.28;71.17;101565.81;4984112;28;20095;-76
2021/06/12 10:46:06;;;;;;;6.70;1.85;;;;;;;18.55;66.09;101546.84;4958575;28;20097;-76
2021/06/12 10:48:39;;;;;;;6.93;1.95;;;;;;;18.38;70.71;101575.38;4974748;28;20057;-75
2021/06/12 10:51:07;;;;;;;7.15;1.83;;;;;;;18.09;67.89;101556.50;4971347;28;20073;-78
2021/06/12 10:53:33;;;;;;;7.85;1.45;;;;;;;17.91;61.69;101582.47;4978032;28;20041;-77
2021/06/12 10:56:00;;;;;;;5.07;1.65;;;;;;;17.73;66.77;101580.06;4975905;28;20535;-78
2021/06/12 10:58:29;;;;;;;11.80;2.70;;;;;;;17.75;64.35;101575.41;4958964;28;20068;-75
2021/06/12 11:01:08;;;;;;;5.78;1.90;;;;;;;17.77;64.54;101583.22;4946866;28;20064;-76
2021/06/12 11:04:15;;;;;;;5.40;2.00;;;;;;;17.85;64.17;101578.69;4991279;28;20038;-77
2021/06/12 11:09:20;;;;;;;6.95;2.17;;;;;;;18.55;61.21;101573.41;4976046;28;20408;-73
2021/06/12 11:11:57;;;;;;;9.20;2.30;;;;;;;18.75;65.91;101568.44;4983204;28;20041;-78
2021/06/12 11:14:23;;;;;;;11.30;1.75;;;;;;;18.65;62.58;101574.84;4984488;28;20053;-75
2021/06/12 11:19:44;;;;;;;6.00;1.70;;;;;;;18.66;70.16;101575.66;4955121;28;20069;-76
2021/06/12 11:22:32;;;;;;;8.20;1.60;;;;;;;19.60;65.80;101573.34;4992486;28;20067;-76
2021/06/12 11:25:23;;;;;;;6.05;1.80;;;;;;;19.34;63.11;101583.63;4985370;28;20060;-78
2021/06/12 11:27:51;;;;;;;7.82;1.50;;;;;;;19.12;61.76;101591.53;4965837;28;20105;-77